KPEZ

Pleasanton Municipal Airport

Pleasanton, Texas, USA
METAR KPEZ 221915Z AUTO 19008KT 10SM CLR 22/14 A2976 RMK AO2 T02180136
Observed Flight Rules
Jan-22 @ 19:15 UTC (18 minutes ago) Visual Flight Rules
Wind Visibility Clouds
190° at 8 knots 10 miles
  • Clear skies
Temperatures Readings
Current 22°C / 72°F
Dewpoint 14°C / 57°F
Humidity 61%
Altimeter 29.76" Hg
Pressure 1007.82 hPa
Elevation 132
METAR KPEZ 221915Z AUTO 19008KT 10SM CLR 22/14 A2976 RMK AO2 T02180136
Observed Flight Rules
Jan-22 @ 19:15 UTC
(18 minutes ago)
VFR
Wind Visibility
190° at 8 knots 10 miles
Clouds
  • Clear skies
Temperature Dewpoint
22°C / 72°F 14°C / 57°F
Humidity Altimeter Pressure
61% 29.76" Hg 1007.82 hPa